There are no active watches, warnings or advisories for Caledonia (Vermont).

Nearby METAR Reports

 

KCDA - Lyndonville, Vermont, USA
Distance from station: ENE 11mi, 18km
Updated: Wed, 12-Dec-2018 3:35pm EST
Clear
Clear
 Wind from NW
Wind: NW 6 mph , 9 km/h
Temperature: 14°F , -10°C
Wind Chill: 5°F , -15°C
Dew Point: 5°F , -15°C
Humidity: 67%
Clouds: Clear
Visibility: 10 miles , 16 km
2018/12/12 20:35 KCDA 122035Z AUTO 31005KT 10SM CLR M10/M15 RMK AO2 T10961154
K1V4 - St. Johnsbury, Vermont, USA
Distance from station: ESE 12mi, 19km
Updated: Wed, 12-Dec-2018 2:54pm EST

 
Temperature: 19°F , -7°C
Dew Point: 7°F , -14°C
Humidity: 58%
Barometer: 30.12 inHg , 1020 hPa
2018/12/12 19:54 K1V4 121954Z AUTO M07/M14 A3012 RMK AO1 SLP219 T10671139
 
KMVL - Morrisville, Vermont, USA
Distance from station: W 20mi, 31km
Updated: Wed, 12-Dec-2018 2:54pm EST
Clear
Clear
 Wind from NNW
Wind: NNW 8 mph , 13 km/h
Temperature: 16°F , -9°C
Wind Chill: 5°F , -15°C
Dew Point: 7°F , -14°C
Humidity: 67%
Barometer: 30.16 inHg , 1021.3 hPa
Clouds: Clear
Visibility: 10 miles , 16 km
2018/12/12 19:54 KMVL 121954Z AUTO 34007KT 10SM CLR M09/M14 A3016 RMK AO2 SLP229 T10891144
KEFK - Newport State, Vermont, USA
Distance from station: N 26mi, 42km
Updated: Wed, 12-Dec-2018 3:15pm EST
Clear
Clear
 Wind from N
Wind: N 8 mph , 13 km/h
Temperature: 10°F , -12°C
Wind Chill: -2°F , -19°C
Dew Point: 5°F , -15°C
Humidity: 79%
Barometer: 30.15 inHg , 1021 hPa
Clouds: Clear
Visibility: 10 miles , 16 km
2018/12/12 20:15 KEFK 122015Z AUTO 35007KT 10SM CLR M12/M15 A3015 RMK AO2 T11171153
 
KMPV - Montpelier/Barre, Vermont, USA
Distance from station: SW 27mi, 44km
Updated: Wed, 12-Dec-2018 2:51pm EST
Clear
Clear
 Wind from NW
Wind: NW 10 mph , 17 km/h
Temperature: 19°F , -7°C
Wind Chill: 8°F , -13°C
Dew Point: 7°F , -14°C
Humidity: 58%
Barometer: 30.14 inHg , 1020.7 hPa
Clouds: Clear
Visibility: 10 miles , 16 km
2018/12/12 19:51 KMPV 121951Z AUTO 32009KT 10SM CLR M07/M14 A3014 RMK AO2 SLP230 T10721144
KHIE - Whitefield, New Hampshire, USA
Distance from station: ESE 34mi, 55km
Updated: Wed, 12-Dec-2018 2:52pm EST
Clear
Clear
 Wind from WNW
Wind: WNW 8 mph , 13 km/h
Temperature: 19°F , -7°C
Wind Chill: 9°F , -13°C
Dew Point: 3°F , -16°C
Humidity: 49%
Barometer: 30.09 inHg , 1019 hPa
Clouds: Clear
Visibility: 10 miles , 16 km
2018/12/12 19:52 KHIE 121952Z AUTO 29007KT 10SM CLR M07/M16 A3009 RMK AO2 SLP213 T10721156
 
KBTV - Burlington, Vermont, USA
Distance from station: W 46mi, 74km
Updated: Wed, 12-Dec-2018 2:54pm EST
Few Clouds
Few Clouds
 Wind from N
Wind: N 8 mph , 13 km/h
Temperature: 19°F , -7°C
Wind Chill: 9°F , -13°C
Dew Point: 5°F , -15°C
Humidity: 53%
Barometer: 30.21 inHg , 1023 hPa
Clouds: Few Clouds
Visibility: 10 miles , 16 km
Cloud details: Few Clouds 4000 ft
Few Clouds 8500 ft
2018/12/12 19:54 KBTV 121954Z 35007KT 10SM FEW040 FEW085 M07/M15 A3021 RMK AO2 SLP237 ACSL SW T10721150
CWFQ - Frelighsburg, Quebec, Canada
Distance from station: NW 47mi, 75km
Updated: Wed, 12-Dec-2018 3:00pm EST

 Wind from NNW
Wind: NNW 3 mph , 6 km/h
Temperature: 9°F , -13°C
Dew Point: 1°F , -17°C
Humidity: 72%
2018/12/12 20:00 CWFQ 122000Z AUTO 33003KT M13/M17 RMK AO1 SOG 18 3018 SLP233 T11281169
 
KMWN - Mount Washington, New Hampshire, USA
Distance from station: ESE 49mi, 79km
Updated: Wed, 12-Dec-2018 2:56pm EST

 Wind from NW
Wind: NW 64 mph , 104 km/h, Gust: 69 mph , 111 km/h
Visibility: 100 miles , 160 km
2018/12/12 19:56 KMWN 121956Z 32056G60KT 100SM SCT/// SKC M21/M27 RMK TPS LWR SCT058
KBML - Berlin, New Hampshire, USA
Distance from station: E 51mi, 83km
Updated: Wed, 12-Dec-2018 2:52pm EST
Clear
Clear
 Wind from NNW
Wind: NNW 9 mph , 15 km/h
Temperature: 18°F , -8°C
Wind Chill: 7°F , -14°C
Dew Point: 3°F , -16°C
Humidity: 53%
Barometer: 30.07 inHg , 1018.3 hPa
Clouds: Clear
Visibility: 10 miles , 16 km
2018/12/12 19:52 KBML 121952Z AUTO 34008KT 10SM CLR M08/M16 A3007 RMK AO2 SLP208 T10831156
 
KFSO - Highgate, Vermont, USA
Distance from station: NW 52mi, 84km
Updated: Wed, 12-Dec-2018 3:35pm EST
Clear
Clear
 Wind from NNE
Wind: NNE 7 mph , 11 km/h
Temperature: 10°F , -12°C
Wind Chill: -1°F , -18°C
Dew Point: 1°F , -17°C
Humidity: 67%
Barometer: 30.25 inHg , 1024.4 hPa
Clouds: Clear
Visibility: 10 miles , 16 km
2018/12/12 20:35 KFSO 122035Z AUTO 02006KT 10SM CLR M12/M17 A3025 RMK AO2 T11191170
CWTT - Lac Memphremagog, Quebec, Canada
Distance from station: N 53mi, 85km
Updated: Wed, 12-Dec-2018 3:00pm EST

 Wind from N
Wind: N 6 mph , 9 km/h
Temperature: 12°F , -11°C
Wind Chill: 2°F , -17°C
Dew Point: 7°F , -14°C
Humidity: 79%
2018/12/12 20:00 CWTT 122000Z AUTO 36005KT M11/M14 RMK AO1 T11081140
 
K1P1 - Plymouth, New Hampshire, USA
Distance from station: SSE 55mi, 88km
Updated: Wed, 12-Dec-2018 3:35pm EST
Clear
Clear
 Wind from W
Wind: W 7 mph , 11 km/h
Temperature: 23°F , -5°C
Wind Chill: 15°F , -9°C
Dew Point: 7°F , -14°C
Humidity: 50%
Barometer: 30.13 inHg , 1020.3 hPa
Clouds: Clear
Visibility: 10 miles , 16 km
2018/12/12 20:35 K1P1 122035Z AUTO 28006KT 10SM CLR M05/M14 A3013 RMK AO2 T10501145
KLEB - Lebanon, New Hampshire, USA
Distance from station: S 60mi, 97km
Updated: Wed, 12-Dec-2018 2:53pm EST
Clear
Clear
 Wind from N
Wind: N 7 mph , 11 km/h
Temperature: 27°F , -3°C
Wind Chill: 19°F , -7°C
Dew Point: 5°F , -15°C
Humidity: 39%
Barometer: 30.12 inHg , 1020 hPa
Clouds: Clear
Visibility: 10 miles , 16 km
2018/12/12 19:53 KLEB 121953Z 35006KT 10SM CLR M03/M15 A3012 RMK AO2 SLP211 T10281150
 
KPBG - Plattsburgh Afb, New York, USA
Distance from station: W 62mi, 100km
Updated: Wed, 12-Dec-2018 2:53pm EST
Clear
Clear
 Wind from NNE
Wind: NNE 10 mph , 17 km/h
Temperature: 18°F , -8°C
Wind Chill: 6°F , -14°C
Dew Point: 9°F , -13°C
Humidity: 68%
Barometer: 30.22 inHg , 1023.4 hPa
Clouds: Clear
Visibility: 10 miles , 16 km
2018/12/12 19:53 KPBG 121953Z AUTO 02009KT 10SM CLR M08/M13 A3022 RMK AO2 SLP238 T10781133
CWQH - Lennoxville, Quebec, Canada
Distance from station: NNE 63mi, 101km
Updated: Wed, 12-Dec-2018 3:00pm EST

 Wind from NNW
Wind: NNW 9 mph , 15 km/h
Temperature: 12°F , -11°C
Wind Chill: -0°F , -18°C
Dew Point: 5°F , -15°C
Humidity: 73%
2018/12/12 20:00 CWQH 122000Z AUTO 33008KT M11/M15 RMK AO1 SOG 18 T11061146
 
CMGB - Granby, Quebec, Canada
Distance from station: NNW 65mi, 105km
Updated: Wed, 12-Dec-2018 3:30pm EST

 Wind from NNW
Wind: NNW 3 mph , 6 km/h
Temperature: 9°F , -13°C
Dew Point: 1°F , -17°C
Humidity: 72%
2018/12/12 20:30 CMGB 122030Z AUTO 34003KT M13/M17 RMK AO1 SOG 09 3015 SLP243 T11271172
CYSC - Sherbrooke, Quebec, Canada
Distance from station: NNE 69mi, 112km
Updated: Wed, 12-Dec-2018 3:00pm EST
Clear
Clear
 Wind from NNW
Wind: NNW 7 mph , 11 km/h
Temperature: 12°F , -11°C
Wind Chill: 1°F , -17°C
Dew Point: 5°F , -15°C
Humidity: 73%
Barometer: 30.15 inHg , 1021 hPa
Clouds: Clear
Visibility: 9 miles , 14 km
2018/12/12 20:00 CYSC 122000Z AUTO 33006KT 9SM CLR M11/M15 A3015 RMK SLP228
 
KIZG - Fryeburg, Maine, USA
Distance from station: ESE 72mi, 117km
Updated: Wed, 12-Dec-2018 2:54pm EST
Clear
Clear
 Wind from N
Wind: N 6 mph , 9 km/h
Temperature: 25°F , -4°C
Wind Chill: 18°F , -8°C
Dew Point: 1°F , -17°C
Humidity: 36%
Barometer: 30.09 inHg , 1019 hPa
Clouds: Clear
Visibility: 10 miles , 16 km
2018/12/12 19:54 KIZG 121954Z AUTO 36005KT 10SM CLR M04/M17 A3009 RMK AO2 SLP198 T10391172